sensor_id;sensor_type;location;lat;lon;timestamp;P1;durP1;ratioP1;P2;durP2;ratioP2
19396;SDS011;9834;48.076;11.878;2022-10-31T00:00:14;5.17;;;2.47;;
19396;SDS011;9834;48.076;11.878;2022-10-31T00:02:42;5.23;;;2.63;;
19396;SDS011;9834;48.076;11.878;2022-10-31T00:05:09;4.80;;;2.23;;
19396;SDS011;9834;48.076;11.878;2022-10-31T00:07:36;5.03;;;2.27;;
19396;SDS011;9834;48.076;11.878;2022-10-31T00:10:03;3.07;;;2.60;;
19396;SDS011;9834;48.076;11.878;2022-10-31T00:12:31;10.40;;;2.13;;
19396;SDS011;9834;48.076;11.878;2022-10-31T00:14:58;4.63;;;3.03;;
19396;SDS011;9834;48.076;11.878;2022-10-31T00:17:25;4.83;;;3.13;;
19396;SDS011;9834;48.076;11.878;2022-10-31T00:19:53;4.20;;;1.53;;
19396;SDS011;9834;48.076;11.878;2022-10-31T00:22:20;7.00;;;3.37;;
19396;SDS011;9834;48.076;11.878;2022-10-31T00:24:47;3.07;;;2.20;;
19396;SDS011;9834;48.076;11.878;2022-10-31T00:27:14;2.63;;;2.30;;
19396;SDS011;9834;48.076;11.878;2022-10-31T00:29:41;3.40;;;2.67;;
19396;SDS011;9834;48.076;11.878;2022-10-31T00:32:08;2.80;;;2.40;;
19396;SDS011;9834;48.076;11.878;2022-10-31T00:34:34;3.43;;;2.43;;
19396;SDS011;9834;48.076;11.878;2022-10-31T00:37:03;4.53;;;2.33;;
19396;SDS011;9834;48.076;11.878;2022-10-31T00:39:30;5.83;;;2.33;;
19396;SDS011;9834;48.076;11.878;2022-10-31T00:41:57;5.17;;;3.00;;
19396;SDS011;9834;48.076;11.878;2022-10-31T00:44:23;2.83;;;2.03;;
19396;SDS011;9834;48.076;11.878;2022-10-31T00:46:50;5.00;;;2.50;;
19396;SDS011;9834;48.076;11.878;2022-10-31T00:49:17;5.43;;;2.80;;
19396;SDS011;9834;48.076;11.878;2022-10-31T00:51:44;2.43;;;1.83;;
19396;SDS011;9834;48.076;11.878;2022-10-31T00:54:13;3.27;;;2.20;;
19396;SDS011;9834;48.076;11.878;2022-10-31T00:56:39;3.47;;;2.27;;
19396;SDS011;9834;48.076;11.878;2022-10-31T00:59:06;5.47;;;2.47;;
19396;SDS011;9834;48.076;11.878;2022-10-31T01:01:33;7.60;;;2.50;;
19396;SDS011;9834;48.076;11.878;2022-10-31T01:04:00;4.07;;;2.60;;
19396;SDS011;9834;48.076;11.878;2022-10-31T01:06:27;4.97;;;2.60;;
19396;SDS011;9834;48.076;11.878;2022-10-31T01:08:54;6.90;;;2.60;;
19396;SDS011;9834;48.076;11.878;2022-10-31T01:11:22;5.90;;;2.50;;
19396;SDS011;9834;48.076;11.878;2022-10-31T01:13:50;3.43;;;2.60;;
19396;SDS011;9834;48.076;11.878;2022-10-31T01:16:18;3.57;;;2.37;;
19396;SDS011;9834;48.076;11.878;2022-10-31T01:18:46;2.50;;;1.90;;
19396;SDS011;9834;48.076;11.878;2022-10-31T01:21:15;6.60;;;3.03;;
19396;SDS011;9834;48.076;11.878;2022-10-31T01:23:43;3.60;;;2.43;;
19396;SDS011;9834;48.076;11.878;2022-10-31T01:26:11;3.00;;;2.30;;
19396;SDS011;9834;48.076;11.878;2022-10-31T01:28:44;4.13;;;2.17;;
19396;SDS011;9834;48.076;11.878;2022-10-31T01:31:12;2.00;;;1.80;;
19396;SDS011;9834;48.076;11.878;2022-10-31T01:33:42;6.87;;;2.03;;
19396;SDS011;9834;48.076;11.878;2022-10-31T01:36:14;3.23;;;2.53;;
19396;SDS011;9834;48.076;11.878;2022-10-31T01:38:43;2.87;;;1.90;;
19396;SDS011;9834;48.076;11.878;2022-10-31T01:41:11;2.07;;;1.93;;
19396;SDS011;9834;48.076;11.878;2022-10-31T01:43:45;2.70;;;2.40;;
19396;SDS011;9834;48.076;11.878;2022-10-31T01:46:15;5.23;;;2.77;;
19396;SDS011;9834;48.076;11.878;2022-10-31T01:48:45;2.53;;;2.33;;
19396;SDS011;9834;48.076;11.878;2022-10-31T01:51:13;5.80;;;2.67;;
19396;SDS011;9834;48.076;11.878;2022-10-31T01:53:42;8.50;;;2.63;;
19396;SDS011;9834;48.076;11.878;2022-10-31T01:56:11;4.10;;;2.53;;
19396;SDS011;9834;48.076;11.878;2022-10-31T01:58:39;3.40;;;2.80;;
19396;SDS011;9834;48.076;11.878;2022-10-31T02:01:08;2.23;;;2.00;;
19396;SDS011;9834;48.076;11.878;2022-10-31T02:03:35;9.73;;;2.60;;
19396;SDS011;9834;48.076;11.878;2022-10-31T02:06:02;2.03;;;1.90;;
19396;SDS011;9834;48.076;11.878;2022-10-31T02:08:33;4.13;;;2.17;;
19396;SDS011;9834;48.076;11.878;2022-10-31T02:11:01;3.57;;;2.63;;
19396;SDS011;9834;48.076;11.878;2022-10-31T02:13:28;2.47;;;2.27;;
19396;SDS011;9834;48.076;11.878;2022-10-31T02:15:56;3.30;;;2.30;;
19396;SDS011;9834;48.076;11.878;2022-10-31T02:18:27;4.17;;;2.30;;
19396;SDS011;9834;48.076;11.878;2022-10-31T02:20:58;5.80;;;2.53;;
19396;SDS011;9834;48.076;11.878;2022-10-31T02:23:53;3.60;;;2.37;;
19396;SDS011;9834;48.076;11.878;2022-10-31T02:26:32;8.77;;;2.37;;
19396;SDS011;9834;48.076;11.878;2022-10-31T02:29:37;5.03;;;2.90;;
19396;SDS011;9834;48.076;11.878;2022-10-31T02:32:27;3.57;;;2.13;;
19396;SDS011;9834;48.076;11.878;2022-10-31T02:35:00;3.43;;;2.10;;
19396;SDS011;9834;48.076;11.878;2022-10-31T02:37:36;3.33;;;2.17;;
19396;SDS011;9834;48.076;11.878;2022-10-31T02:40:10;3.77;;;2.30;;
19396;SDS011;9834;48.076;11.878;2022-10-31T02:42:46;3.43;;;2.17;;
19396;SDS011;9834;48.076;11.878;2022-10-31T02:45:22;2.77;;;2.40;;
19396;SDS011;9834;48.076;11.878;2022-10-31T02:47:57;4.40;;;2.67;;
19396;SDS011;9834;48.076;11.878;2022-10-31T02:50:29;3.27;;;1.93;;
19396;SDS011;9834;48.076;11.878;2022-10-31T02:52:58;4.03;;;2.33;;
19396;SDS011;9834;48.076;11.878;2022-10-31T02:58:15;5.77;;;2.47;;
19396;SDS011;9834;48.076;11.878;2022-10-31T03:00:48;2.60;;;2.40;;
19396;SDS011;9834;48.076;11.878;2022-10-31T03:03:35;2.60;;;2.07;;
19396;SDS011;9834;48.076;11.878;2022-10-31T03:06:07;1.60;;;1.50;;
19396;SDS011;9834;48.076;11.878;2022-10-31T03:08:41;5.73;;;2.40;;
19396;SDS011;9834;48.076;11.878;2022-10-31T03:11:16;4.57;;;2.80;;
19396;SDS011;9834;48.076;11.878;2022-10-31T03:13:47;4.10;;;2.27;;
19396;SDS011;9834;48.076;11.878;2022-10-31T03:16:18;5.73;;;2.03;;
19396;SDS011;9834;48.076;11.878;2022-10-31T03:18:54;5.00;;;2.03;;
19396;SDS011;9834;48.076;11.878;2022-10-31T03:21:27;3.83;;;2.37;;
19396;SDS011;9834;48.076;11.878;2022-10-31T03:23:56;6.53;;;2.20;;
19396;SDS011;9834;48.076;11.878;2022-10-31T03:26:25;2.10;;;1.87;;
19396;SDS011;9834;48.076;11.878;2022-10-31T03:28:53;6.43;;;2.73;;
19396;SDS011;9834;48.076;11.878;2022-10-31T03:31:25;3.67;;;2.10;;
19396;SDS011;9834;48.076;11.878;2022-10-31T03:33:57;2.10;;;1.93;;
19396;SDS011;9834;48.076;11.878;2022-10-31T03:36:27;2.03;;;1.63;;
19396;SDS011;9834;48.076;11.878;2022-10-31T03:38:56;2.70;;;1.77;;
19396;SDS011;9834;48.076;11.878;2022-10-31T03:41:25;2.40;;;1.83;;
19396;SDS011;9834;48.076;11.878;2022-10-31T03:43:59;4.50;;;2.00;;
19396;SDS011;9834;48.076;11.878;2022-10-31T03:46:29;2.40;;;2.20;;
19396;SDS011;9834;48.076;11.878;2022-10-31T03:48:57;1.83;;;1.50;;
19396;SDS011;9834;48.076;11.878;2022-10-31T03:51:26;3.67;;;1.93;;
19396;SDS011;9834;48.076;11.878;2022-10-31T03:54:01;3.50;;;2.33;;
19396;SDS011;9834;48.076;11.878;2022-10-31T03:56:33;3.63;;;2.27;;
19396;SDS011;9834;48.076;11.878;2022-10-31T03:59:04;3.27;;;2.20;;
19396;SDS011;9834;48.076;11.878;2022-10-31T04:01:37;2.10;;;2.00;;
19396;SDS011;9834;48.076;11.878;2022-10-31T04:04:10;2.93;;;1.90;;
19396;SDS011;9834;48.076;11.878;2022-10-31T04:06:39;1.70;;;1.60;;
19396;SDS011;9834;48.076;11.878;2022-10-31T04:09:08;2.97;;;2.10;;
19396;SDS011;9834;48.076;11.878;2022-10-31T04:11:36;4.97;;;2.17;;
19396;SDS011;9834;48.076;11.878;2022-10-31T04:14:07;2.30;;;1.87;;
19396;SDS011;9834;48.076;11.878;2022-10-31T04:16:35;2.93;;;1.80;;
19396;SDS011;9834;48.076;11.878;2022-10-31T04:19:02;4.00;;;2.37;;
19396;SDS011;9834;48.076;11.878;2022-10-31T04:21:31;4.47;;;2.17;;
19396;SDS011;9834;48.076;11.878;2022-10-31T04:23:58;3.17;;;2.63;;
19396;SDS011;9834;48.076;11.878;2022-10-31T04:26:25;5.57;;;2.77;;
19396;SDS011;9834;48.076;11.878;2022-10-31T04:28:52;5.83;;;2.27;;
19396;SDS011;9834;48.076;11.878;2022-10-31T04:31:19;2.00;;;1.80;;
19396;SDS011;9834;48.076;11.878;2022-10-31T04:33:46;2.33;;;1.90;;
19396;SDS011;9834;48.076;11.878;2022-10-31T04:36:13;2.33;;;2.10;;
19396;SDS011;9834;48.076;11.878;2022-10-31T04:38:41;3.53;;;2.20;;
19396;SDS011;9834;48.076;11.878;2022-10-31T04:41:08;7.40;;;1.90;;
19396;SDS011;9834;48.076;11.878;2022-10-31T04:43:35;3.03;;;2.30;;
19396;SDS011;9834;48.076;11.878;2022-10-31T04:46:02;2.23;;;1.67;;
19396;SDS011;9834;48.076;11.878;2022-10-31T04:48:30;3.03;;;2.37;;
19396;SDS011;9834;48.076;11.878;2022-10-31T04:51:00;2.90;;;1.80;;
19396;SDS011;9834;48.076;11.878;2022-10-31T04:53:27;2.07;;;1.87;;
19396;SDS011;9834;48.076;11.878;2022-10-31T04:55:57;3.80;;;2.30;;
19396;SDS011;9834;48.076;11.878;2022-10-31T04:58:24;2.87;;;1.90;;
19396;SDS011;9834;48.076;11.878;2022-10-31T05:00:51;3.10;;;1.63;;
19396;SDS011;9834;48.076;11.878;2022-10-31T05:03:19;3.13;;;2.13;;
19396;SDS011;9834;48.076;11.878;2022-10-31T05:05:46;2.93;;;2.00;;
19396;SDS011;9834;48.076;11.878;2022-10-31T05:08:13;1.90;;;1.57;;
19396;SDS011;9834;48.076;11.878;2022-10-31T05:10:40;1.93;;;1.60;;
19396;SDS011;9834;48.076;11.878;2022-10-31T05:13:08;4.67;;;2.17;;
19396;SDS011;9834;48.076;11.878;2022-10-31T05:15:35;1.60;;;1.50;;
19396;SDS011;9834;48.076;11.878;2022-10-31T05:18:02;5.37;;;2.20;;
19396;SDS011;9834;48.076;11.878;2022-10-31T05:20:29;3.73;;;1.93;;
19396;SDS011;9834;48.076;11.878;2022-10-31T05:22:57;2.87;;;1.67;;
19396;SDS011;9834;48.076;11.878;2022-10-31T05:25:25;2.70;;;1.50;;
19396;SDS011;9834;48.076;11.878;2022-10-31T05:27:53;1.70;;;1.47;;
19396;SDS011;9834;48.076;11.878;2022-10-31T05:30:22;2.83;;;1.80;;
19396;SDS011;9834;48.076;11.878;2022-10-31T05:32:51;1.87;;;1.53;;
19396;SDS011;9834;48.076;11.878;2022-10-31T05:35:18;1.77;;;1.67;;
19396;SDS011;9834;48.076;11.878;2022-10-31T05:37:47;1.93;;;1.70;;
19396;SDS011;9834;48.076;11.878;2022-10-31T05:40:14;5.13;;;1.50;;
19396;SDS011;9834;48.076;11.878;2022-10-31T05:42:42;1.70;;;1.20;;
19396;SDS011;9834;48.076;11.878;2022-10-31T05:45:10;2.20;;;1.87;;
19396;SDS011;9834;48.076;11.878;2022-10-31T05:47:40;3.33;;;1.70;;
19396;SDS011;9834;48.076;11.878;2022-10-31T05:50:08;2.33;;;1.97;;
19396;SDS011;9834;48.076;11.878;2022-10-31T05:52:35;1.23;;;1.13;;
19396;SDS011;9834;48.076;11.878;2022-10-31T05:55:03;2.37;;;1.77;;
19396;SDS011;9834;48.076;11.878;2022-10-31T05:57:31;2.60;;;1.70;;
19396;SDS011;9834;48.076;11.878;2022-10-31T05:59:58;3.27;;;2.30;;
19396;SDS011;9834;48.076;11.878;2022-10-31T06:02:25;5.87;;;1.83;;
19396;SDS011;9834;48.076;11.878;2022-10-31T06:04:58;2.07;;;1.87;;
19396;SDS011;9834;48.076;11.878;2022-10-31T06:07:24;2.43;;;1.47;;
19396;SDS011;9834;48.076;11.878;2022-10-31T06:09:51;2.80;;;2.03;;
19396;SDS011;9834;48.076;11.878;2022-10-31T06:12:18;2.33;;;1.70;;
19396;SDS011;9834;48.076;11.878;2022-10-31T06:14:45;2.67;;;2.03;;
19396;SDS011;9834;48.076;11.878;2022-10-31T06:17:12;5.00;;;2.07;;
19396;SDS011;9834;48.076;11.878;2022-10-31T06:19:39;2.33;;;2.13;;
19396;SDS011;9834;48.076;11.878;2022-10-31T06:22:07;3.10;;;2.17;;
19396;SDS011;9834;48.076;11.878;2022-10-31T06:24:36;4.13;;;1.80;;
19396;SDS011;9834;48.076;11.878;2022-10-31T06:27:03;2.50;;;1.77;;
19396;SDS011;9834;48.076;11.878;2022-10-31T06:29:30;1.97;;;1.73;;
19396;SDS011;9834;48.076;11.878;2022-10-31T06:31:57;3.40;;;1.53;;
19396;SDS011;9834;48.076;11.878;2022-10-31T06:34:24;1.60;;;1.20;;
19396;SDS011;9834;48.076;11.878;2022-10-31T06:36:51;1.87;;;1.30;;
19396;SDS011;9834;48.076;11.878;2022-10-31T06:39:19;2.73;;;1.80;;
19396;SDS011;9834;48.076;11.878;2022-10-31T06:41:46;3.27;;;2.17;;
19396;SDS011;9834;48.076;11.878;2022-10-31T06:44:13;3.80;;;2.17;;
19396;SDS011;9834;48.076;11.878;2022-10-31T06:46:40;1.60;;;1.50;;
19396;SDS011;9834;48.076;11.878;2022-10-31T06:49:07;2.10;;;1.73;;
19396;SDS011;9834;48.076;11.878;2022-10-31T06:51:34;1.83;;;1.73;;
19396;SDS011;9834;48.076;11.878;2022-10-31T06:54:01;3.27;;;1.70;;
19396;SDS011;9834;48.076;11.878;2022-10-31T06:56:29;3.63;;;1.87;;
19396;SDS011;9834;48.076;11.878;2022-10-31T06:58:56;2.90;;;2.07;;
19396;SDS011;9834;48.076;11.878;2022-10-31T07:01:23;2.73;;;2.07;;
19396;SDS011;9834;48.076;11.878;2022-10-31T07:03:50;6.00;;;2.13;;
19396;SDS011;9834;48.076;11.878;2022-10-31T07:06:17;1.63;;;1.53;;
19396;SDS011;9834;48.076;11.878;2022-10-31T07:08:44;4.20;;;2.13;;
19396;SDS011;9834;48.076;11.878;2022-10-31T07:11:11;2.97;;;2.13;;
19396;SDS011;9834;48.076;11.878;2022-10-31T07:13:39;3.40;;;2.30;;
19396;SDS011;9834;48.076;11.878;2022-10-31T07:16:06;9.03;;;2.80;;
19396;SDS011;9834;48.076;11.878;2022-10-31T07:18:35;6.93;;;2.90;;
19396;SDS011;9834;48.076;11.878;2022-10-31T07:21:02;2.90;;;2.60;;
19396;SDS011;9834;48.076;11.878;2022-10-31T07:23:29;2.70;;;2.23;;
19396;SDS011;9834;48.076;11.878;2022-10-31T07:25:56;5.30;;;2.90;;
19396;SDS011;9834;48.076;11.878;2022-10-31T07:28:24;7.27;;;2.10;;
19396;SDS011;9834;48.076;11.878;2022-10-31T07:30:53;4.53;;;2.80;;
19396;SDS011;9834;48.076;11.878;2022-10-31T07:33:21;7.07;;;2.93;;
19396;SDS011;9834;48.076;11.878;2022-10-31T07:35:50;2.90;;;2.67;;
19396;SDS011;9834;48.076;11.878;2022-10-31T07:38:17;5.17;;;3.13;;
19396;SDS011;9834;48.076;11.878;2022-10-31T07:40:48;5.23;;;3.87;;
19396;SDS011;9834;48.076;11.878;2022-10-31T07:43:16;4.37;;;3.63;;
19396;SDS011;9834;48.076;11.878;2022-10-31T07:45:43;5.40;;;3.90;;
19396;SDS011;9834;48.076;11.878;2022-10-31T07:48:11;7.40;;;3.60;;
19396;SDS011;9834;48.076;11.878;2022-10-31T07:50:38;4.67;;;3.80;;
19396;SDS011;9834;48.076;11.878;2022-10-31T07:53:07;9.57;;;3.97;;
19396;SDS011;9834;48.076;11.878;2022-10-31T07:55:35;7.30;;;4.37;;
19396;SDS011;9834;48.076;11.878;2022-10-31T07:58:02;7.73;;;4.50;;
19396;SDS011;9834;48.076;11.878;2022-10-31T08:00:31;6.80;;;4.13;;
19396;SDS011;9834;48.076;11.878;2022-10-31T08:02:59;5.23;;;4.33;;
19396;SDS011;9834;48.076;11.878;2022-10-31T08:05:28;6.07;;;4.23;;
19396;SDS011;9834;48.076;11.878;2022-10-31T08:07:56;5.20;;;4.00;;
19396;SDS011;9834;48.076;11.878;2022-10-31T08:10:23;5.20;;;3.47;;
19396;SDS011;9834;48.076;11.878;2022-10-31T08:12:55;7.63;;;4.93;;
19396;SDS011;9834;48.076;11.878;2022-10-31T08:15:23;4.40;;;3.63;;
19396;SDS011;9834;48.076;11.878;2022-10-31T08:17:50;4.20;;;3.80;;
19396;SDS011;9834;48.076;11.878;2022-10-31T08:20:17;5.13;;;3.83;;
19396;SDS011;9834;48.076;11.878;2022-10-31T08:22:53;7.00;;;4.47;;
19396;SDS011;9834;48.076;11.878;2022-10-31T08:25:21;3.70;;;3.17;;
19396;SDS011;9834;48.076;11.878;2022-10-31T08:27:48;3.47;;;2.90;;
19396;SDS011;9834;48.076;11.878;2022-10-31T08:30:17;4.13;;;3.70;;
19396;SDS011;9834;48.076;11.878;2022-10-31T08:32:44;4.90;;;3.40;;
19396;SDS011;9834;48.076;11.878;2022-10-31T08:35:11;3.63;;;2.83;;
19396;SDS011;9834;48.076;11.878;2022-10-31T08:37:38;3.07;;;2.77;;
19396;SDS011;9834;48.076;11.878;2022-10-31T08:40:07;5.87;;;3.27;;
19396;SDS011;9834;48.076;11.878;2022-10-31T08:42:34;7.97;;;2.87;;
19396;SDS011;9834;48.076;11.878;2022-10-31T08:45:01;5.77;;;3.33;;
19396;SDS011;9834;48.076;11.878;2022-10-31T08:47:28;6.27;;;3.67;;
19396;SDS011;9834;48.076;11.878;2022-10-31T08:49:55;7.20;;;3.40;;
19396;SDS011;9834;48.076;11.878;2022-10-31T08:52:23;2.63;;;2.43;;
19396;SDS011;9834;48.076;11.878;2022-10-31T08:54:51;3.43;;;2.37;;
19396;SDS011;9834;48.076;11.878;2022-10-31T08:57:19;4.20;;;2.93;;
19396;SDS011;9834;48.076;11.878;2022-10-31T08:59:46;6.10;;;3.00;;
19396;SDS011;9834;48.076;11.878;2022-10-31T09:02:13;15.80;;;3.23;;
19396;SDS011;9834;48.076;11.878;2022-10-31T09:04:40;3.33;;;2.60;;
19396;SDS011;9834;48.076;11.878;2022-10-31T09:07:07;4.13;;;2.50;;
19396;SDS011;9834;48.076;11.878;2022-10-31T09:09:34;3.30;;;2.40;;
19396;SDS011;9834;48.076;11.878;2022-10-31T09:12:01;2.70;;;2.17;;
19396;SDS011;9834;48.076;11.878;2022-10-31T09:14:29;2.20;;;1.77;;
19396;SDS011;9834;48.076;11.878;2022-10-31T09:16:56;7.03;;;3.10;;
19396;SDS011;9834;48.076;11.878;2022-10-31T09:19:23;1.97;;;1.73;;
19396;SDS011;9834;48.076;11.878;2022-10-31T09:21:51;4.00;;;1.77;;
19396;SDS011;9834;48.076;11.878;2022-10-31T09:24:19;4.90;;;2.33;;
19396;SDS011;9834;48.076;11.878;2022-10-31T09:26:45;2.57;;;1.47;;
19396;SDS011;9834;48.076;11.878;2022-10-31T09:29:12;1.93;;;1.80;;
19396;SDS011;9834;48.076;11.878;2022-10-31T09:31:41;1.67;;;1.57;;
19396;SDS011;9834;48.076;11.878;2022-10-31T09:34:08;1.43;;;1.33;;
19396;SDS011;9834;48.076;11.878;2022-10-31T09:36:35;3.13;;;2.33;;
19396;SDS011;9834;48.076;11.878;2022-10-31T09:39:02;3.17;;;2.20;;
19396;SDS011;9834;48.076;11.878;2022-10-31T09:41:32;1.40;;;1.17;;
19396;SDS011;9834;48.076;11.878;2022-10-31T09:44:20;1.90;;;1.60;;
19396;SDS011;9834;48.076;11.878;2022-10-31T09:46:57;4.20;;;1.97;;
19396;SDS011;9834;48.076;11.878;2022-10-31T09:49:32;5.10;;;2.30;;
19396;SDS011;9834;48.076;11.878;2022-10-31T09:52:08;2.67;;;1.90;;
19396;SDS011;9834;48.076;11.878;2022-10-31T09:54:40;2.20;;;1.60;;
19396;SDS011;9834;48.076;11.878;2022-10-31T09:57:12;3.93;;;2.00;;
19396;SDS011;9834;48.076;11.878;2022-10-31T09:59:41;3.30;;;2.20;;
19396;SDS011;9834;48.076;11.878;2022-10-31T10:02:13;8.27;;;3.00;;
19396;SDS011;9834;48.076;11.878;2022-10-31T10:04:46;2.77;;;2.23;;
19396;SDS011;9834;48.076;11.878;2022-10-31T10:07:21;2.73;;;1.77;;
19396;SDS011;9834;48.076;11.878;2022-10-31T10:09:53;5.83;;;2.73;;
19396;SDS011;9834;48.076;11.878;2022-10-31T10:12:22;1.50;;;1.40;;
19396;SDS011;9834;48.076;11.878;2022-10-31T10:15:04;2.35;;;1.95;;
19396;SDS011;9834;48.076;11.878;2022-10-31T10:17:57;5.90;;;2.00;;
19396;SDS011;9834;48.076;11.878;2022-10-31T10:20:31;2.60;;;2.25;;
19396;SDS011;9834;48.076;11.878;2022-10-31T10:23:19;5.50;;;2.33;;
19396;SDS011;9834;48.076;11.878;2022-10-31T10:25:56;4.18;;;2.40;;
19396;SDS011;9834;48.076;11.878;2022-10-31T10:28:35;8.23;;;2.72;;
19396;SDS011;9834;48.076;11.878;2022-10-31T10:31:05;5.45;;;2.45;;
19396;SDS011;9834;48.076;11.878;2022-10-31T10:33:37;3.38;;;2.50;;
19396;SDS011;9834;48.076;11.878;2022-10-31T10:36:10;4.72;;;2.55;;
19396;SDS011;9834;48.076;11.878;2022-10-31T10:38:44;3.35;;;1.83;;
19396;SDS011;9834;48.076;11.878;2022-10-31T10:41:16;2.65;;;1.88;;
19396;SDS011;9834;48.076;11.878;2022-10-31T10:43:44;2.25;;;1.83;;
19396;SDS011;9834;48.076;11.878;2022-10-31T10:46:14;5.88;;;2.22;;
19396;SDS011;9834;48.076;11.878;2022-10-31T10:49:15;4.22;;;2.28;;
19396;SDS011;9834;48.076;11.878;2022-10-31T10:51:44;8.20;;;2.85;;
19396;SDS011;9834;48.076;11.878;2022-10-31T10:54:17;1.75;;;1.52;;
19396;SDS011;9834;48.076;11.878;2022-10-31T10:57:09;4.32;;;1.60;;
19396;SDS011;9834;48.076;11.878;2022-10-31T10:59:44;2.92;;;2.00;;
19396;SDS011;9834;48.076;11.878;2022-10-31T11:02:16;4.50;;;2.67;;
19396;SDS011;9834;48.076;11.878;2022-10-31T11:04:47;4.60;;;2.05;;
19396;SDS011;9834;48.076;11.878;2022-10-31T11:07:17;2.58;;;2.33;;
19396;SDS011;9834;48.076;11.878;2022-10-31T11:09:44;2.75;;;1.77;;
19396;SDS011;9834;48.076;11.878;2022-10-31T11:12:16;3.15;;;1.98;;
19396;SDS011;9834;48.076;11.878;2022-10-31T11:14:46;2.42;;;1.63;;
19396;SDS011;9834;48.076;11.878;2022-10-31T11:17:19;3.08;;;2.25;;
19396;SDS011;9834;48.076;11.878;2022-10-31T11:20:00;7.32;;;2.50;;
19396;SDS011;9834;48.076;11.878;2022-10-31T11:22:29;5.97;;;2.58;;
19396;SDS011;9834;48.076;11.878;2022-10-31T11:24:57;2.22;;;1.67;;
19396;SDS011;9834;48.076;11.878;2022-10-31T11:27:24;4.10;;;1.77;;
19396;SDS011;9834;48.076;11.878;2022-10-31T11:29:52;4.30;;;2.55;;
19396;SDS011;9834;48.076;11.878;2022-10-31T11:32:29;6.88;;;2.35;;
19396;SDS011;9834;48.076;11.878;2022-10-31T11:34:57;6.07;;;2.00;;
19396;SDS011;9834;48.076;11.878;2022-10-31T11:37:29;4.53;;;2.17;;
19396;SDS011;9834;48.076;11.878;2022-10-31T11:40:00;11.25;;;2.45;;
19396;SDS011;9834;48.076;11.878;2022-10-31T11:42:34;2.33;;;2.08;;
19396;SDS011;9834;48.076;11.878;2022-10-31T11:45:05;5.10;;;2.80;;
19396;SDS011;9834;48.076;11.878;2022-10-31T11:47:52;2.42;;;2.08;;
19396;SDS011;9834;48.076;11.878;2022-10-31T11:50:22;2.80;;;2.08;;
19396;SDS011;9834;48.076;11.878;2022-10-31T11:52:52;6.40;;;2.25;;
19396;SDS011;9834;48.076;11.878;2022-10-31T11:55:29;5.68;;;2.00;;
19396;SDS011;9834;48.076;11.878;2022-10-31T11:57:58;3.28;;;2.15;;
19396;SDS011;9834;48.076;11.878;2022-10-31T12:00:26;3.17;;;2.50;;
19396;SDS011;9834;48.076;11.878;2022-10-31T12:03:04;4.35;;;2.63;;
19396;SDS011;9834;48.076;11.878;2022-10-31T12:05:40;7.93;;;2.65;;
19396;SDS011;9834;48.076;11.878;2022-10-31T12:08:11;2.72;;;2.05;;
19396;SDS011;9834;48.076;11.878;2022-10-31T12:10:40;4.88;;;2.70;;
19396;SDS011;9834;48.076;11.878;2022-10-31T12:13:21;4.43;;;2.67;;
19396;SDS011;9834;48.076;11.878;2022-10-31T12:15:59;5.00;;;1.70;;
19396;SDS011;9834;48.076;11.878;2022-10-31T12:18:43;9.85;;;2.65;;
19396;SDS011;9834;48.076;11.878;2022-10-31T12:21:22;2.50;;;1.88;;
19396;SDS011;9834;48.076;11.878;2022-10-31T12:24:26;2.50;;;1.77;;
19396;SDS011;9834;48.076;11.878;2022-10-31T12:27:05;5.43;;;2.15;;
19396;SDS011;9834;48.076;11.878;2022-10-31T12:29:49;5.07;;;2.22;;
19396;SDS011;9834;48.076;11.878;2022-10-31T12:32:27;4.13;;;2.60;;
19396;SDS011;9834;48.076;11.878;2022-10-31T12:35:03;9.48;;;2.13;;
19396;SDS011;9834;48.076;11.878;2022-10-31T12:37:45;7.97;;;2.38;;
19396;SDS011;9834;48.076;11.878;2022-10-31T12:40:28;4.05;;;1.75;;
19396;SDS011;9834;48.076;11.878;2022-10-31T12:43:05;3.17;;;2.03;;
19396;SDS011;9834;48.076;11.878;2022-10-31T12:45:45;4.45;;;2.40;;
19396;SDS011;9834;48.076;11.878;2022-10-31T12:48:25;3.13;;;2.10;;
19396;SDS011;9834;48.076;11.878;2022-10-31T12:51:13;3.60;;;2.17;;
19396;SDS011;9834;48.076;11.878;2022-10-31T12:53:51;5.38;;;2.22;;
19396;SDS011;9834;48.076;11.878;2022-10-31T12:56:36;3.90;;;2.15;;
19396;SDS011;9834;48.076;11.878;2022-10-31T12:59:20;3.63;;;1.98;;
19396;SDS011;9834;48.076;11.878;2022-10-31T13:01:54;5.70;;;2.95;;
19396;SDS011;9834;48.076;11.878;2022-10-31T13:04:30;1.85;;;1.70;;
19396;SDS011;9834;48.076;11.878;2022-10-31T13:07:05;9.02;;;2.60;;
19396;SDS011;9834;48.076;11.878;2022-10-31T13:09:38;2.45;;;1.98;;
19396;SDS011;9834;48.076;11.878;2022-10-31T13:12:13;2.25;;;1.77;;
19396;SDS011;9834;48.076;11.878;2022-10-31T13:14:44;2.17;;;1.83;;
19396;SDS011;9834;48.076;11.878;2022-10-31T13:17:17;4.18;;;2.55;;
19396;SDS011;9834;48.076;11.878;2022-10-31T13:19:48;7.03;;;3.38;;
19396;SDS011;9834;48.076;11.878;2022-10-31T13:22:18;4.03;;;2.38;;
19396;SDS011;9834;48.076;11.878;2022-10-31T13:24:52;2.65;;;2.45;;
19396;SDS011;9834;48.076;11.878;2022-10-31T13:27:25;3.53;;;1.92;;
19396;SDS011;9834;48.076;11.878;2022-10-31T13:29:58;4.30;;;2.53;;
19396;SDS011;9834;48.076;11.878;2022-10-31T13:32:30;3.72;;;2.10;;
19396;SDS011;9834;48.076;11.878;2022-10-31T13:35:08;8.30;;;2.45;;
19396;SDS011;9834;48.076;11.878;2022-10-31T13:37:41;3.80;;;2.70;;
19396;SDS011;9834;48.076;11.878;2022-10-31T13:40:14;4.63;;;2.88;;
19396;SDS011;9834;48.076;11.878;2022-10-31T13:42:55;3.70;;;2.40;;
19396;SDS011;9834;48.076;11.878;2022-10-31T13:45:28;3.50;;;3.20;;
19396;SDS011;9834;48.076;11.878;2022-10-31T13:47:56;8.52;;;3.10;;
19396;SDS011;9834;48.076;11.878;2022-10-31T13:50:26;3.95;;;2.85;;
19396;SDS011;9834;48.076;11.878;2022-10-31T13:53:14;3.78;;;2.30;;
19396;SDS011;9834;48.076;11.878;2022-10-31T13:55:47;4.63;;;2.67;;
19396;SDS011;9834;48.076;11.878;2022-10-31T13:58:23;3.35;;;2.30;;
19396;SDS011;9834;48.076;11.878;2022-10-31T14:00:59;9.93;;;3.58;;
19396;SDS011;9834;48.076;11.878;2022-10-31T14:03:37;6.00;;;2.97;;
19396;SDS011;9834;48.076;11.878;2022-10-31T14:06:05;5.78;;;4.00;;
19396;SDS011;9834;48.076;11.878;2022-10-31T14:08:35;3.10;;;2.80;;
19396;SDS011;9834;48.076;11.878;2022-10-31T14:11:06;6.03;;;3.03;;
19396;SDS011;9834;48.076;11.878;2022-10-31T14:13:36;2.25;;;2.05;;
19396;SDS011;9834;48.076;11.878;2022-10-31T14:16:16;8.95;;;2.95;;
19396;SDS011;9834;48.076;11.878;2022-10-31T14:18:47;3.35;;;2.70;;
19396;SDS011;9834;48.076;11.878;2022-10-31T14:21:25;7.07;;;3.70;;
19396;SDS011;9834;48.076;11.878;2022-10-31T14:24:13;24.60;;;7.82;;
19396;SDS011;9834;48.076;11.878;2022-10-31T14:26:51;3.97;;;3.03;;
19396;SDS011;9834;48.076;11.878;2022-10-31T14:29:25;3.00;;;2.58;;
19396;SDS011;9834;48.076;11.878;2022-10-31T14:31:54;8.35;;;4.28;;
19396;SDS011;9834;48.076;11.878;2022-10-31T14:34:24;12.40;;;6.57;;
19396;SDS011;9834;48.076;11.878;2022-10-31T14:36:59;17.95;;;9.90;;
19396;SDS011;9834;48.076;11.878;2022-10-31T14:39:36;20.67;;;11.63;;
19396;SDS011;9834;48.076;11.878;2022-10-31T14:42:15;18.85;;;6.82;;
19396;SDS011;9834;48.076;11.878;2022-10-31T14:44:58;5.05;;;4.50;;
19396;SDS011;9834;48.076;11.878;2022-10-31T14:47:42;5.35;;;2.88;;
19396;SDS011;9834;48.076;11.878;2022-10-31T14:50:23;10.10;;;2.97;;
19396;SDS011;9834;48.076;11.878;2022-10-31T14:53:01;1.40;;;1.33;;
19396;SDS011;9834;48.076;11.878;2022-10-31T14:55:32;6.82;;;3.10;;
19396;SDS011;9834;48.076;11.878;2022-10-31T14:58:00;3.97;;;2.58;;
19396;SDS011;9834;48.076;11.878;2022-10-31T15:00:31;3.15;;;2.70;;
19396;SDS011;9834;48.076;11.878;2022-10-31T15:03:07;5.50;;;2.47;;
19396;SDS011;9834;48.076;11.878;2022-10-31T15:05:41;5.28;;;2.83;;
19396;SDS011;9834;48.076;11.878;2022-10-31T15:08:13;6.00;;;2.35;;
19396;SDS011;9834;48.076;11.878;2022-10-31T15:10:52;7.05;;;2.75;;
19396;SDS011;9834;48.076;11.878;2022-10-31T15:13:20;2.15;;;2.03;;